createdAt,value
2022-10-04T00:02:33.896Z,11.65
2022-10-04T00:05:54.517Z,11.63
2022-10-04T00:09:19.565Z,11.58
2022-10-04T00:13:06.207Z,11.54
2022-10-04T00:16:34.003Z,11.52
2022-10-04T00:19:47.914Z,11.53
2022-10-04T00:23:34.196Z,11.54
2022-10-04T00:26:39.024Z,11.57
2022-10-04T00:29:48.879Z,11.59
2022-10-04T00:33:47.135Z,11.54
2022-10-04T00:37:24.779Z,11.51
2022-10-04T00:41:24.763Z,11.50
2022-10-04T00:49:08.912Z,11.47
2022-10-04T01:01:32.241Z,11.43
2022-10-04T01:08:42.564Z,11.42
2022-10-04T01:12:31.158Z,11.43
2022-10-04T01:16:55.329Z,11.41
2022-10-04T01:21:20.208Z,11.41
2022-10-04T01:25:02.458Z,11.37
2022-10-04T01:39:41.883Z,11.42
2022-10-04T01:51:43.003Z,11.40
2022-10-04T02:00:03.905Z,11.35
2022-10-04T02:03:57.186Z,11.34
2022-10-04T02:08:02.459Z,11.31
2022-10-04T02:11:55.014Z,11.28
2022-10-04T02:15:22.926Z,11.29
2022-10-04T02:19:33.552Z,11.26
2022-10-04T02:28:20.197Z,11.31
2022-10-04T02:32:43.753Z,11.33
2022-10-04T02:42:17.592Z,11.30
2022-10-04T02:45:06.679Z,11.29
2022-10-04T02:49:29.256Z,11.28
2022-10-04T04:01:20.577Z,11.39
2022-10-04T04:04:49.233Z,11.41
2022-10-04T04:08:28.273Z,11.42
2022-10-04T04:11:52.941Z,11.43
2022-10-04T04:15:16.924Z,11.41
2022-10-04T04:18:36.756Z,11.42
2022-10-04T04:21:56.050Z,11.41
2022-10-04T04:25:52.958Z,11.39
2022-10-04T04:33:48.621Z,11.37
2022-10-04T04:37:47.284Z,11.37
2022-10-04T04:46:27.071Z,11.32
2022-10-04T04:54:46.450Z,11.31
2022-10-04T04:58:44.814Z,11.29
2022-10-04T05:02:23.989Z,11.31
2022-10-04T05:11:18.417Z,11.30
2022-10-04T05:15:57.721Z,11.31
2022-10-04T05:19:06.178Z,11.29
2022-10-04T05:22:16.824Z,11.31
2022-10-04T05:25:59.961Z,11.32
2022-10-04T05:30:03.377Z,11.30
2022-10-04T05:43:34.650Z,11.28
2022-10-04T06:58:43.540Z,11.49
2022-10-04T08:25:15.537Z,12.16
2022-10-04T08:29:33.502Z,12.24
2022-10-04T08:33:46.371Z,12.27
2022-10-04T08:37:56.063Z,12.32
2022-10-04T08:51:08.755Z,12.55
2022-10-04T09:00:14.089Z,12.76
2022-10-04T09:03:51.877Z,12.78
2022-10-04T09:11:19.406Z,12.92
2022-10-04T09:29:09.556Z,13.28
2022-10-04T09:55:33.970Z,13.57
2022-10-04T09:59:01.077Z,13.64
2022-10-04T10:02:40.970Z,13.79
2022-10-04T10:06:26.274Z,14.02
2022-10-04T10:10:26.489Z,14.09
2022-10-04T10:13:59.177Z,14.21
2022-10-04T10:18:49.716Z,14.33
2022-10-04T10:21:58.567Z,14.45
2022-10-04T10:25:53.626Z,14.70
2022-10-04T10:29:28.043Z,14.94
2022-10-04T10:32:47.389Z,15.16
2022-10-04T10:36:37.659Z,15.57
2022-10-04T10:40:42.902Z,15.41
2022-10-04T10:43:56.959Z,15.31
2022-10-04T10:47:21.903Z,15.23
2022-10-04T10:52:13.124Z,15.14
2022-10-04T10:55:51.111Z,15.10
2022-10-04T10:59:25.197Z,15.08
2022-10-04T11:03:14.628Z,15.12
2022-10-04T11:06:48.572Z,15.10
2022-10-04T11:11:19.750Z,15.14
2022-10-04T11:15:29.452Z,15.19
2022-10-04T11:19:48.937Z,15.16
2022-10-04T11:23:59.959Z,15.25
2022-10-04T11:28:04.130Z,15.41
2022-10-04T11:31:35.262Z,15.48
2022-10-04T11:35:30.253Z,15.50
2022-10-04T11:39:17.842Z,15.56
2022-10-04T11:43:06.397Z,15.46
2022-10-04T12:25:24.170Z,15.71
2022-10-04T12:29:29.134Z,15.66
2022-10-04T12:33:06.944Z,15.53
2022-10-04T12:37:06.927Z,15.45
2022-10-04T12:40:15.172Z,15.59
2022-10-04T12:43:40.353Z,15.71
2022-10-04T12:47:25.080Z,15.75
2022-10-04T12:55:55.382Z,15.85
2022-10-04T13:00:08.955Z,15.85
2022-10-04T13:04:07.620Z,15.88
2022-10-04T13:07:42.082Z,16.04
2022-10-04T13:11:14.772Z,16.17
2022-10-04T13:15:00.168Z,16.23
2022-10-04T13:18:36.636Z,16.20
2022-10-04T13:26:46.704Z,15.98
2022-10-04T13:30:22.271Z,16.03
2022-10-04T13:34:12.128Z,16.04
2022-10-04T13:37:40.263Z,16.02
2022-10-04T13:41:22.774Z,16.00
2022-10-04T13:45:26.938Z,15.88
2022-10-04T13:48:53.510Z,15.85
2022-10-04T13:52:43.879Z,15.84
2022-10-04T14:00:50.959Z,15.89
2022-10-04T14:04:42.462Z,15.87
2022-10-04T14:08:29.405Z,15.84
2022-10-04T14:12:04.192Z,15.82
2022-10-04T14:15:46.214Z,15.83
2022-10-04T14:19:21.429Z,15.82
2022-10-04T14:23:04.334Z,15.77
2022-10-04T14:26:28.330Z,15.78
2022-10-04T14:30:25.640Z,15.66
2022-10-04T14:33:50.256Z,15.66
2022-10-04T14:37:20.284Z,15.64
2022-10-04T14:41:03.142Z,15.70
2022-10-04T14:44:46.040Z,15.67
2022-10-04T14:48:37.589Z,15.64
2022-10-04T14:52:08.541Z,15.54
2022-10-04T14:56:14.461Z,15.48
2022-10-04T14:59:43.054Z,15.42
2022-10-04T15:03:32.063Z,15.41
2022-10-04T15:06:57.705Z,15.46
2022-10-04T15:10:40.405Z,15.41
2022-10-04T15:14:02.141Z,15.35
2022-10-04T15:17:30.936Z,15.38
2022-10-04T15:20:59.143Z,15.34
2022-10-04T15:24:30.668Z,15.28
2022-10-04T15:27:42.969Z,15.33
2022-10-04T15:31:06.121Z,15.35
2022-10-04T15:34:53.086Z,15.33
2022-10-04T15:38:49.191Z,15.36
2022-10-04T15:42:38.409Z,15.35
2022-10-04T15:46:09.361Z,15.31
2022-10-04T15:49:59.928Z,15.30
2022-10-04T15:53:38.722Z,15.27
2022-10-04T15:56:55.972Z,15.19
2022-10-04T16:00:22.737Z,15.16
2022-10-04T16:03:30.044Z,15.09
2022-10-04T16:06:48.000Z,15.07
2022-10-04T16:10:19.575Z,15.00
2022-10-04T16:13:56.824Z,14.94
2022-10-04T16:17:50.297Z,14.85
2022-10-04T16:21:48.209Z,14.75
2022-10-04T16:25:17.614Z,14.66
2022-10-04T16:28:58.594Z,14.58
2022-10-04T16:32:27.364Z,14.52
2022-10-04T16:35:45.520Z,14.46
2022-10-04T16:39:15.456Z,14.46
2022-10-04T16:42:44.945Z,14.50
2022-10-04T16:46:31.356Z,14.46
2022-10-04T16:49:55.095Z,14.42
2022-10-04T16:53:32.666Z,14.46
2022-10-04T16:57:18.137Z,14.43
2022-10-04T17:00:38.271Z,14.44
2022-10-04T17:04:12.403Z,14.39
2022-10-04T17:07:52.929Z,14.34
2022-10-04T17:11:45.231Z,14.30
2022-10-04T17:15:15.637Z,14.25
2022-10-04T17:18:44.662Z,14.17
2022-10-04T17:22:07.461Z,14.07
2022-10-04T17:25:53.057Z,14.05
2022-10-04T17:29:29.536Z,14.04
2022-10-04T17:33:19.465Z,13.98
2022-10-04T17:36:41.564Z,13.95
2022-10-04T17:40:10.207Z,13.91
2022-10-04T17:43:45.244Z,13.90
2022-10-04T17:46:53.528Z,13.85
2022-10-04T17:50:36.568Z,13.82
2022-10-04T17:54:08.201Z,13.79
2022-10-04T17:57:42.737Z,13.75
2022-10-04T18:01:14.283Z,13.69
2022-10-04T18:04:30.299Z,13.71
2022-10-04T18:07:46.610Z,13.75
2022-10-04T18:11:16.110Z,13.78
2022-10-04T18:14:56.951Z,13.79
2022-10-04T18:18:10.519Z,13.81
2022-10-04T18:21:31.349Z,13.78
2022-10-04T18:24:35.690Z,13.77
2022-10-04T18:28:04.640Z,13.75
2022-10-04T18:31:41.048Z,13.69
2022-10-04T18:34:58.331Z,13.68
2022-10-04T18:38:05.848Z,13.67
2022-10-04T18:41:18.028Z,13.61
2022-10-04T18:44:49.205Z,13.56
2022-10-04T18:47:55.747Z,13.52
2022-10-04T18:51:45.112Z,13.45
2022-10-04T18:54:55.735Z,13.36
2022-10-04T18:58:31.557Z,13.34
2022-10-04T19:02:01.095Z,13.26
2022-10-04T19:05:51.428Z,13.19
2022-10-04T19:09:28.667Z,13.15
2022-10-04T19:12:55.894Z,13.14
2022-10-04T19:16:15.369Z,13.13
2022-10-04T19:19:23.019Z,13.14
2022-10-04T19:22:50.897Z,13.11
2022-10-04T19:26:32.909Z,13.10
2022-10-04T19:30:31.264Z,13.10
2022-10-04T19:34:09.000Z,13.09
2022-10-04T19:37:28.547Z,13.09
2022-10-04T19:41:19.568Z,13.07
2022-10-04T19:44:52.198Z,13.09
2022-10-04T19:48:01.644Z,13.13
2022-10-04T19:51:42.497Z,13.14
2022-10-04T19:54:50.825Z,13.15
2022-10-04T19:58:05.273Z,13.15
2022-10-04T20:01:17.678Z,13.19
2022-10-04T20:04:42.088Z,13.20
2022-10-04T20:08:04.768Z,13.23
2022-10-04T20:11:28.036Z,13.24
2022-10-04T20:14:32.833Z,13.23
2022-10-04T20:17:39.500Z,13.24
2022-10-04T20:20:43.829Z,13.31
2022-10-04T20:23:50.535Z,13.34
2022-10-04T20:27:06.121Z,13.35
2022-10-04T20:30:16.572Z,13.38
2022-10-04T20:33:37.092Z,13.39
2022-10-04T20:36:46.510Z,13.39
2022-10-04T20:39:56.462Z,13.39
2022-10-04T20:43:13.207Z,13.40
2022-10-04T20:46:27.068Z,13.42
2022-10-04T20:49:31.299Z,13.45
2022-10-04T20:52:38.176Z,13.47
2022-10-04T20:55:45.468Z,13.48
2022-10-04T20:59:15.745Z,13.49
2022-10-04T21:02:23.079Z,13.46
2022-10-04T21:05:27.423Z,13.45
2022-10-04T21:08:32.773Z,13.43
2022-10-04T21:11:46.739Z,13.42
2022-10-04T21:15:19.769Z,13.44
2022-10-04T21:18:24.349Z,13.41
2022-10-04T21:21:48.933Z,13.41
2022-10-04T21:24:57.987Z,13.38
2022-10-04T21:28:31.013Z,13.40
2022-10-04T21:31:35.467Z,13.41
2022-10-04T21:34:53.048Z,13.44
2022-10-04T21:37:59.055Z,13.45
2022-10-04T21:41:03.991Z,13.45
2022-10-04T21:44:08.811Z,13.45
2022-10-04T21:47:13.118Z,13.44
2022-10-04T21:50:17.604Z,13.46
2022-10-04T21:53:22.128Z,13.44
2022-10-04T21:56:26.692Z,13.45
2022-10-04T21:59:31.110Z,13.43
2022-10-04T22:02:35.506Z,13.45
2022-10-04T22:05:39.931Z,13.47
2022-10-04T22:08:44.460Z,13.50
2022-10-04T22:11:48.994Z,13.52
2022-10-04T22:14:53.551Z,13.52
2022-10-04T22:17:58.055Z,13.53
2022-10-04T22:21:03.426Z,13.54
2022-10-04T22:24:19.554Z,13.53
2022-10-04T22:27:24.284Z,13.54
2022-10-04T22:30:31.314Z,13.54
2022-10-04T22:33:39.551Z,13.49
2022-10-04T22:36:46.108Z,13.49
2022-10-04T22:39:52.722Z,13.48
2022-10-04T22:43:00.773Z,13.44
2022-10-04T22:46:11.463Z,13.44
2022-10-04T22:49:21.465Z,13.42
2022-10-04T22:52:28.683Z,13.43
2022-10-04T22:55:34.002Z,13.39
2022-10-04T22:58:39.044Z,13.42
2022-10-04T23:01:44.378Z,13.42
2022-10-04T23:04:55.749Z,13.43
2022-10-04T23:08:00.171Z,13.42
2022-10-04T23:11:04.866Z,13.41
2022-10-04T23:14:09.468Z,13.42
2022-10-04T23:17:26.179Z,13.42
2022-10-04T23:20:31.169Z,13.45
2022-10-04T23:23:35.977Z,13.45
2022-10-04T23:26:42.330Z,13.46
2022-10-04T23:29:52.453Z,13.49
2022-10-04T23:33:00.068Z,13.48
2022-10-04T23:36:12.076Z,13.46
2022-10-04T23:39:27.849Z,13.47
2022-10-04T23:42:33.479Z,13.45
2022-10-04T23:45:41.913Z,13.46
2022-10-04T23:48:47.746Z,13.47
2022-10-04T23:51:59.586Z,13.48
2022-10-04T23:55:23.151Z,13.49
2022-10-04T23:58:34.625Z,13.49
